PWSweather.com
Personal Weather Stations
Station Observations
DW6359
Southwest Cambria, Cambria, WI 53923

Southwest CambriaCambria, WI 53923

Lat: 43.541194, Lon: -89.11275

Elevation: 945

Station Type: Davis Vantage Pro2

http://home.centurytel.net/weathercambria/wxcambria.html

High Low Average
Temperature 2.3°F-16.5°C -11.1°F-23.9°C -4.7°F-20.4°C
Dew Point -4.8°F-20.4°C -16.5°F-26.9°C -11.7°F-24.3°C
Winds 12.0 mph 19.3 kmh 1.0 mph 1.6 kmh 5.0 mph W8.0 kmh W
Wind Gusts 12.0 mph19.3 kmh -- 2.0 mph3.2 kmh
Humidity 76% 64% 71%
Pressure 30.88 in1045.7 mb 30.80 in1043.0 mb -
Precipitation 0.00 in0.0 mm - -
Hour Temp Dew Point Humidity Winds Wind Gusts Pressure Precip Precip Rate Daily Precip Total
12:00 AM -7.4°F-21.9°C -15.7°F-26.5°C 66% 10.0 mph W16.1 kmh W -- 30.81 in1043.3 mb 0.00 in0.0 mm 0.00 in0.0 mm 0.00 in0.0 mm
12:05 AM -7.5°F-21.9°C -15.8°F-26.6°C 66% 5.0 mph WNW8.0 kmh WNW -- 30.81 in1043.3 mb 0.00 in0.0 mm 0.00 in0.0 mm 0.00 in0.0 mm
12:10 AM -7.5°F-21.9°C -15.5°F-26.4°C 67% 8.0 mph NW12.9 kmh NW -- 30.81 in1043.3 mb 0.00 in0.0 mm 0.00 in0.0 mm 0.00 in0.0 mm
12:15 AM -7.6°F-22.0°C -15.6°F-26.4°C 67% 5.0 mph NW8.0 kmh NW -- 30.81 in1043.3 mb 0.00 in0.0 mm 0.00 in0.0 mm 0.00 in0.0 mm
12:20 AM -7.6°F-22.0°C -15.6°F-26.4°C 67% 8.0 mph NW12.9 kmh NW -- 30.81 in1043.3 mb 0.00 in0.0 mm 0.00 in0.0 mm 0.00 in0.0 mm
12:25 AM -7.7°F-22.1°C -15.7°F-26.5°C 67% 6.0 mph NW9.7 kmh NW -- 30.82 in1043.7 mb 0.00 in0.0 mm 0.00 in0.0 mm 0.00 in0.0 mm
12:30 AM -7.7°F-22.1°C -15.7°F-26.5°C 67% 5.0 mph NW8.0 kmh NW 13.0 mph20.9 kmh 30.82 in1043.7 mb 0.00 in0.0 mm 0.00 in0.0 mm 0.00 in0.0 mm
12:35 AM -7.8°F-22.1°C -15.8°F-26.6°C 67% 9.0 mph NW14.5 kmh NW 13.0 mph20.9 kmh 30.81 in1043.3 mb 0.00 in0.0 mm 0.00 in0.0 mm 0.00 in0.0 mm
12:40 AM -7.8°F-22.1°C -15.8°F-26.6°C 67% 8.0 mph W12.9 kmh W -- 30.82 in1043.7 mb 0.00 in0.0 mm 0.00 in0.0 mm 0.00 in0.0 mm
12:45 AM -7.8°F-22.1°C -15.8°F-26.6°C 67% 4.0 mph NW6.4 kmh NW -- 30.82 in1043.7 mb 0.00 in0.0 mm 0.00 in0.0 mm 0.00 in0.0 mm
12:50 AM -7.8°F-22.1°C -15.8°F-26.6°C 67% 12.0 mph NW19.3 kmh NW -- 30.81 in1043.3 mb 0.00 in0.0 mm 0.00 in0.0 mm 0.00 in0.0 mm
12:55 AM -7.9°F-22.2°C -15.9°F-26.6°C 67% 4.0 mph WNW6.4 kmh WNW -- 30.81 in1043.3 mb 0.00 in0.0 mm 0.00 in0.0 mm 0.00 in0.0 mm
01:00 AM -7.9°F-22.2°C -15.9°F-26.6°C 67% 9.0 mph WNW14.5 kmh WNW -- 30.81 in1043.3 mb 0.00 in0.0 mm 0.00 in0.0 mm 0.00 in0.0 mm
01:05 AM -7.9°F-22.2°C -15.9°F-26.6°C 67% 7.0 mph W11.3 kmh W -- 30.81 in1043.3 mb 0.00 in0.0 mm 0.00 in0.0 mm 0.00 in0.0 mm
01:10 AM -7.9°F-22.2°C -15.6°F-26.4°C 68% 7.0 mph WNW11.3 kmh WNW -- 30.81 in1043.3 mb 0.00 in0.0 mm 0.00 in0.0 mm 0.00 in0.0 mm
01:15 AM -8.0°F-22.2°C -15.7°F-26.5°C 68% 4.0 mph W6.4 kmh W -- 30.81 in1043.3 mb 0.00 in0.0 mm 0.00 in0.0 mm 0.00 in0.0 mm
01:20 AM -8.0°F-22.2°C -15.7°F-26.5°C 68% 5.0 mph WNW8.0 kmh WNW 10.0 mph16.1 kmh 30.81 in1043.3 mb 0.00 in0.0 mm 0.00 in0.0 mm 0.00 in0.0 mm
01:25 AM -8.0°F-22.2°C -15.7°F-26.5°C 68% 3.0 mph NW4.8 kmh NW 10.0 mph16.1 kmh 30.81 in1043.3 mb 0.00 in0.0 mm 0.00 in0.0 mm 0.00 in0.0 mm
01:30 AM -8.0°F-22.2°C -15.7°F-26.5°C 68% 4.0 mph W6.4 kmh W -- 30.81 in1043.3 mb 0.00 in0.0 mm 0.00 in0.0 mm 0.00 in0.0 mm
01:35 AM -8.1°F-22.3°C -15.8°F-26.6°C 68% 5.0 mph WNW8.0 kmh WNW -- 30.81 in1043.3 mb 0.00 in0.0 mm 0.00 in0.0 mm 0.00 in0.0 mm
01:40 AM -8.1°F-22.3°C -15.8°F-26.6°C 68% 4.0 mph W6.4 kmh W -- 30.82 in1043.7 mb 0.00 in0.0 mm 0.00 in0.0 mm 0.00 in0.0 mm
01:45 AM -8.1°F-22.3°C -15.8°F-26.6°C 68% 4.0 mph W6.4 kmh W -- 30.82 in1043.7 mb 0.00 in0.0 mm 0.00 in0.0 mm 0.00 in0.0 mm
01:50 AM -8.2°F-22.3°C -15.9°F-26.6°C 68% 8.0 mph WSW12.9 kmh WSW -- 30.82 in1043.7 mb 0.00 in0.0 mm 0.00 in0.0 mm 0.00 in0.0 mm
01:55 AM -8.2°F-22.3°C -15.6°F-26.4°C 69% 7.0 mph W11.3 kmh W -- 30.82 in1043.7 mb 0.00 in0.0 mm 0.00 in0.0 mm 0.00 in0.0 mm
02:00 AM -8.2°F-22.3°C -15.6°F-26.4°C 69% 5.0 mph W8.0 kmh W -- 30.82 in1043.7 mb 0.00 in0.0 mm 0.00 in0.0 mm 0.00 in0.0 mm
02:05 AM -8.2°F-22.3°C -15.6°F-26.4°C 69% 4.0 mph WNW6.4 kmh WNW -- 30.82 in1043.7 mb 0.00 in0.0 mm 0.00 in0.0 mm 0.00 in0.0 mm
02:10 AM -8.3°F-22.4°C -15.7°F-26.5°C 69% 5.0 mph W8.0 kmh W 9.0 mph14.5 kmh 30.82 in1043.7 mb 0.00 in0.0 mm 0.00 in0.0 mm 0.00 in0.0 mm
02:15 AM -8.3°F-22.4°C -15.7°F-26.5°C 69% 3.0 mph WSW4.8 kmh WSW 9.0 mph14.5 kmh 30.82 in1043.7 mb 0.00 in0.0 mm 0.00 in0.0 mm 0.00 in0.0 mm
02:20 AM -8.3°F-22.4°C -15.7°F-26.5°C 69% 5.0 mph W8.0 kmh W -- 30.82 in1043.7 mb 0.00 in0.0 mm 0.00 in0.0 mm 0.00 in0.0 mm
02:25 AM -8.3°F-22.4°C -15.7°F-26.5°C 69% 8.0 mph W12.9 kmh W -- 30.82 in1043.7 mb 0.00 in0.0 mm 0.00 in0.0 mm 0.00 in0.0 mm
02:30 AM -8.2°F-22.3°C -15.6°F-26.4°C 69% 6.0 mph W9.7 kmh W -- 30.83 in1044.0 mb 0.00 in0.0 mm 0.00 in0.0 mm 0.00 in0.0 mm
02:35 AM -8.3°F-22.4°C -15.7°F-26.5°C 69% 5.0 mph W8.0 kmh W -- 30.83 in1044.0 mb 0.00 in0.0 mm 0.00 in0.0 mm 0.00 in0.0 mm
02:40 AM -8.4°F-22.4°C -15.8°F-26.6°C 69% 2.0 mph W3.2 kmh W -- 30.83 in1044.0 mb 0.00 in0.0 mm 0.00 in0.0 mm 0.00 in0.0 mm
02:45 AM -8.5°F-22.5°C -15.6°F-26.4°C 70% 3.0 mph W4.8 kmh W -- 30.83 in1044.0 mb 0.00 in0.0 mm 0.00 in0.0 mm 0.00 in0.0 mm
02:50 AM -8.8°F-22.7°C -15.9°F-26.6°C 70% 2.0 mph W3.2 kmh W -- 30.83 in1044.0 mb 0.00 in0.0 mm 0.00 in0.0 mm 0.00 in0.0 mm
02:55 AM -9.0°F-22.8°C -15.8°F-26.6°C 71% 2.0 mph W3.2 kmh W -- 30.83 in1044.0 mb 0.00 in0.0 mm 0.00 in0.0 mm 0.00 in0.0 mm
03:00 AM -9.2°F-22.9°C -16.0°F-26.7°C 71% 4.0 mph W6.4 kmh W 5.0 mph8.0 kmh 30.84 in1044.4 mb 0.00 in0.0 mm 0.00 in0.0 mm 0.00 in0.0 mm
03:05 AM -9.2°F-22.9°C -15.7°F-26.5°C 72% 3.0 mph W4.8 kmh W 5.0 mph8.0 kmh 30.83 in1044.0 mb 0.00 in0.0 mm 0.00 in0.0 mm 0.00 in0.0 mm
03:10 AM -9.2°F-22.9°C -15.7°F-26.5°C 72% 4.0 mph W6.4 kmh W -- 30.83 in1044.0 mb 0.00 in0.0 mm 0.00 in0.0 mm 0.00 in0.0 mm
03:15 AM -9.1°F-22.8°C -15.6°F-26.4°C 72% 3.0 mph NW4.8 kmh NW -- 30.83 in1044.0 mb 0.00 in0.0 mm 0.00 in0.0 mm 0.00 in0.0 mm
03:20 AM -9.1°F-22.8°C -15.6°F-26.4°C 72% 3.0 mph W4.8 kmh W -- 30.84 in1044.4 mb 0.00 in0.0 mm 0.00 in0.0 mm 0.00 in0.0 mm
03:25 AM -9.1°F-22.8°C -15.6°F-26.4°C 72% 4.0 mph W6.4 kmh W -- 30.84 in1044.4 mb 0.00 in0.0 mm 0.00 in0.0 mm 0.00 in0.0 mm
03:30 AM -9.2°F-22.9°C -15.7°F-26.5°C 72% 5.0 mph W8.0 kmh W -- 30.84 in1044.4 mb 0.00 in0.0 mm 0.00 in0.0 mm 0.00 in0.0 mm
03:35 AM -9.1°F-22.8°C -15.6°F-26.4°C 72% 3.0 mph W4.8 kmh W -- 30.83 in1044.0 mb 0.00 in0.0 mm 0.00 in0.0 mm 0.00 in0.0 mm
03:40 AM -9.1°F-22.8°C -15.6°F-26.4°C 72% 3.0 mph WSW4.8 kmh WSW -- 30.84 in1044.4 mb 0.00 in0.0 mm 0.00 in0.0 mm 0.00 in0.0 mm
03:45 AM -9.2°F-22.9°C -15.7°F-26.5°C 72% 4.0 mph W6.4 kmh W -- 30.83 in1044.0 mb 0.00 in0.0 mm 0.00 in0.0 mm 0.00 in0.0 mm
03:50 AM -9.2°F-22.9°C -15.5°F-26.4°C 73% 6.0 mph W9.7 kmh W 8.0 mph12.9 kmh 30.83 in1044.0 mb 0.00 in0.0 mm 0.00 in0.0 mm 0.00 in0.0 mm
03:55 AM -9.3°F-22.9°C -15.6°F-26.4°C 73% 4.0 mph W6.4 kmh W 8.0 mph12.9 kmh 30.83 in1044.0 mb 0.00 in0.0 mm 0.00 in0.0 mm 0.00 in0.0 mm
04:00 AM -9.3°F-22.9°C -15.6°F-26.4°C 73% 3.0 mph WNW4.8 kmh WNW -- 30.83 in1044.0 mb 0.00 in0.0 mm 0.00 in0.0 mm 0.00 in0.0 mm
04:05 AM -9.4°F-23.0°C -15.7°F-26.5°C 73% 6.0 mph W9.7 kmh W -- 30.83 in1044.0 mb 0.00 in0.0 mm 0.00 in0.0 mm 0.00 in0.0 mm
04:10 AM -9.4°F-23.0°C -15.7°F-26.5°C 73% 4.0 mph W6.4 kmh W -- 30.83 in1044.0 mb 0.00 in0.0 mm 0.00 in0.0 mm 0.00 in0.0 mm
04:15 AM -9.4°F-23.0°C -15.7°F-26.5°C 73% 5.0 mph W8.0 kmh W -- 30.83 in1044.0 mb 0.00 in0.0 mm 0.00 in0.0 mm 0.00 in0.0 mm
04:20 AM -9.3°F-22.9°C -15.6°F-26.4°C 73% 5.0 mph W8.0 kmh W -- 30.82 in1043.7 mb 0.00 in0.0 mm 0.00 in0.0 mm 0.00 in0.0 mm
04:25 AM -9.4°F-23.0°C -15.7°F-26.5°C 73% 5.0 mph W8.0 kmh W -- 30.82 in1043.7 mb 0.00 in0.0 mm 0.00 in0.0 mm 0.00 in0.0 mm
04:30 AM -9.4°F-23.0°C -15.7°F-26.5°C 73% 6.0 mph WNW9.7 kmh WNW -- 30.82 in1043.7 mb 0.00 in0.0 mm 0.00 in0.0 mm 0.00 in0.0 mm
04:35 AM -9.4°F-23.0°C -15.7°F-26.5°C 73% 3.0 mph W4.8 kmh W -- 30.82 in1043.7 mb 0.00 in0.0 mm 0.00 in0.0 mm 0.00 in0.0 mm
04:40 AM -9.4°F-23.0°C -15.7°F-26.5°C 73% 6.0 mph W9.7 kmh W 7.0 mph11.3 kmh 30.82 in1043.7 mb 0.00 in0.0 mm 0.00 in0.0 mm 0.00 in0.0 mm
04:45 AM -9.4°F-23.0°C -15.7°F-26.5°C 73% 6.0 mph W9.7 kmh W 7.0 mph11.3 kmh 30.83 in1044.0 mb 0.00 in0.0 mm 0.00 in0.0 mm 0.00 in0.0 mm
04:50 AM -9.5°F-23.1°C -15.8°F-26.6°C 73% 6.0 mph W9.7 kmh W -- 30.83 in1044.0 mb 0.00 in0.0 mm 0.00 in0.0 mm 0.00 in0.0 mm
04:55 AM -9.5°F-23.1°C -15.8°F-26.6°C 73% 4.0 mph W6.4 kmh W -- 30.83 in1044.0 mb 0.00 in0.0 mm 0.00 in0.0 mm 0.00 in0.0 mm
05:00 AM -9.5°F-23.1°C -15.8°F-26.6°C 73% 2.0 mph WSW3.2 kmh WSW -- 30.82 in1043.7 mb 0.00 in0.0 mm 0.00 in0.0 mm 0.00 in0.0 mm
05:05 AM -9.5°F-23.1°C -15.8°F-26.6°C 73% 3.0 mph W4.8 kmh W -- 30.82 in1043.7 mb 0.00 in0.0 mm 0.00 in0.0 mm 0.00 in0.0 mm
05:10 AM -9.5°F-23.1°C -15.5°F-26.4°C 74% 6.0 mph W9.7 kmh W -- 30.82 in1043.7 mb 0.00 in0.0 mm 0.00 in0.0 mm 0.00 in0.0 mm
05:15 AM -9.6°F-23.1°C -15.9°F-26.6°C 73% 5.0 mph WNW8.0 kmh WNW -- 30.82 in1043.7 mb 0.00 in0.0 mm 0.00 in0.0 mm 0.00 in0.0 mm
05:20 AM -9.6°F-23.1°C -15.6°F-26.4°C 74% 6.0 mph W9.7 kmh W -- 30.82 in1043.7 mb 0.00 in0.0 mm 0.00 in0.0 mm 0.00 in0.0 mm
05:25 AM -9.6°F-23.1°C -15.9°F-26.6°C 73% 5.0 mph W8.0 kmh W -- 30.82 in1043.7 mb 0.00 in0.0 mm 0.00 in0.0 mm 0.00 in0.0 mm
05:30 AM -9.6°F-23.1°C -15.6°F-26.4°C 74% 4.0 mph WNW6.4 kmh WNW 10.0 mph16.1 kmh 30.82 in1043.7 mb 0.00 in0.0 mm 0.00 in0.0 mm 0.00 in0.0 mm
05:35 AM -9.6°F-23.1°C -15.6°F-26.4°C 74% 4.0 mph W6.4 kmh W 10.0 mph16.1 kmh 30.82 in1043.7 mb 0.00 in0.0 mm 0.00 in0.0 mm 0.00 in0.0 mm
05:40 AM -9.6°F-23.1°C -15.6°F-26.4°C 74% 5.0 mph W8.0 kmh W -- 30.83 in1044.0 mb 0.00 in0.0 mm 0.00 in0.0 mm 0.00 in0.0 mm
05:45 AM -9.7°F-23.2°C -15.7°F-26.5°C 74% 4.0 mph W6.4 kmh W -- 30.83 in1044.0 mb 0.00 in0.0 mm 0.00 in0.0 mm 0.00 in0.0 mm
05:50 AM -9.7°F-23.2°C -15.7°F-26.5°C 74% 5.0 mph WSW8.0 kmh WSW -- 30.83 in1044.0 mb 0.00 in0.0 mm 0.00 in0.0 mm 0.00 in0.0 mm
05:55 AM -9.8°F-23.2°C -15.8°F-26.6°C 74% 3.0 mph W4.8 kmh W -- 30.83 in1044.0 mb 0.00 in0.0 mm 0.00 in0.0 mm 0.00 in0.0 mm
06:00 AM -9.8°F-23.2°C -15.8°F-26.6°C 74% 5.0 mph W8.0 kmh W -- 30.83 in1044.0 mb 0.00 in0.0 mm 0.00 in0.0 mm 0.00 in0.0 mm
06:05 AM -9.8°F-23.2°C -15.8°F-26.6°C 74% 5.0 mph W8.0 kmh W -- 30.83 in1044.0 mb 0.00 in0.0 mm 0.00 in0.0 mm 0.00 in0.0 mm
06:10 AM -9.9°F-23.3°C -15.9°F-26.6°C 74% 4.0 mph W6.4 kmh W -- 30.83 in1044.0 mb 0.00 in0.0 mm 0.00 in0.0 mm 0.00 in0.0 mm
06:15 AM -9.9°F-23.3°C -15.9°F-26.6°C 74% 5.0 mph W8.0 kmh W -- 30.83 in1044.0 mb 0.00 in0.0 mm 0.00 in0.0 mm 0.00 in0.0 mm
06:20 AM -9.8°F-23.2°C -15.8°F-26.6°C 74% 9.0 mph WSW14.5 kmh WSW 11.0 mph17.7 kmh 30.83 in1044.0 mb 0.00 in0.0 mm 0.00 in0.0 mm 0.00 in0.0 mm
06:25 AM -9.9°F-23.3°C -15.9°F-26.6°C 74% 8.0 mph W12.9 kmh W 11.0 mph17.7 kmh 30.84 in1044.4 mb 0.00 in0.0 mm 0.00 in0.0 mm 0.00 in0.0 mm
06:30 AM -9.9°F-23.3°C -15.9°F-26.6°C 74% 7.0 mph W11.3 kmh W -- 30.84 in1044.4 mb 0.00 in0.0 mm 0.00 in0.0 mm 0.00 in0.0 mm
06:35 AM -9.9°F-23.3°C -15.6°F-26.4°C 75% 7.0 mph W11.3 kmh W -- 30.84 in1044.4 mb 0.00 in0.0 mm 0.00 in0.0 mm 0.00 in0.0 mm
06:40 AM -9.9°F-23.3°C -15.9°F-26.6°C 74% 5.0 mph NW8.0 kmh NW -- 30.84 in1044.4 mb 0.00 in0.0 mm 0.00 in0.0 mm 0.00 in0.0 mm
06:45 AM -10.0°F-23.3°C -16.0°F-26.7°C 74% 4.0 mph WNW6.4 kmh WNW -- 30.84 in1044.4 mb 0.00 in0.0 mm 0.00 in0.0 mm 0.00 in0.0 mm
06:50 AM -10.1°F-23.4°C -16.1°F-26.7°C 74% 8.0 mph W12.9 kmh W -- 30.84 in1044.4 mb 0.00 in0.0 mm 0.00 in0.0 mm 0.00 in0.0 mm
06:55 AM -10.1°F-23.4°C -15.8°F-26.6°C 75% 6.0 mph NW9.7 kmh NW -- 30.84 in1044.4 mb 0.00 in0.0 mm 0.00 in0.0 mm 0.00 in0.0 mm
07:00 AM -10.2°F-23.4°C -15.9°F-26.6°C 75% 4.0 mph WNW6.4 kmh WNW -- 30.84 in1044.4 mb 0.00 in0.0 mm 0.00 in0.0 mm 0.00 in0.0 mm
07:05 AM -10.3°F-23.5°C -16.0°F-26.7°C 75% 4.0 mph WSW6.4 kmh WSW -- 30.84 in1044.4 mb 0.00 in0.0 mm 0.00 in0.0 mm 0.00 in0.0 mm
07:10 AM -10.3°F-23.5°C -16.0°F-26.7°C 75% 6.0 mph W9.7 kmh W 12.0 mph19.3 kmh 30.84 in1044.4 mb 0.00 in0.0 mm 0.00 in0.0 mm 0.00 in0.0 mm
07:15 AM -10.4°F-23.6°C -16.1°F-26.7°C 75% 3.0 mph W4.8 kmh W 12.0 mph19.3 kmh 30.84 in1044.4 mb 0.00 in0.0 mm 0.00 in0.0 mm 0.00 in0.0 mm
07:20 AM -10.4°F-23.6°C -16.1°F-26.7°C 75% 5.0 mph W8.0 kmh W -- 30.84 in1044.4 mb 0.00 in0.0 mm 0.00 in0.0 mm 0.00 in0.0 mm
07:25 AM -10.4°F-23.6°C -16.1°F-26.7°C 75% 6.0 mph NW9.7 kmh NW -- 30.84 in1044.4 mb 0.00 in0.0 mm 0.00 in0.0 mm 0.00 in0.0 mm
07:30 AM -10.5°F-23.6°C -16.2°F-26.8°C 75% 9.0 mph W14.5 kmh W -- 30.84 in1044.4 mb 0.00 in0.0 mm 0.00 in0.0 mm 0.00 in0.0 mm
07:35 AM -10.6°F-23.7°C -16.3°F-26.8°C 75% 10.0 mph WNW16.1 kmh WNW -- 30.84 in1044.4 mb 0.00 in0.0 mm 0.00 in0.0 mm 0.00 in0.0 mm
07:40 AM -10.6°F-23.7°C -16.3°F-26.8°C 75% 5.0 mph W8.0 kmh W -- 30.84 in1044.4 mb 0.00 in0.0 mm 0.00 in0.0 mm 0.00 in0.0 mm
07:45 AM -10.7°F-23.7°C -16.1°F-26.7°C 76% 8.0 mph W12.9 kmh W -- 30.84 in1044.4 mb 0.00 in0.0 mm 0.00 in0.0 mm 0.00 in0.0 mm
07:50 AM -10.7°F-23.7°C -16.1°F-26.7°C 76% 6.0 mph W9.7 kmh W -- 30.84 in1044.4 mb 0.00 in0.0 mm 0.00 in0.0 mm 0.00 in0.0 mm
07:55 AM -10.8°F-23.8°C -16.2°F-26.8°C 76% 7.0 mph W11.3 kmh W -- 30.84 in1044.4 mb 0.00 in0.0 mm 0.00 in0.0 mm 0.00 in0.0 mm
08:00 AM -10.8°F-23.8°C -16.2°F-26.8°C 76% 8.0 mph W12.9 kmh W 12.0 mph19.3 kmh 30.85 in1044.7 mb 0.00 in0.0 mm 0.00 in0.0 mm 0.00 in0.0 mm
08:05 AM -10.8°F-23.8°C -16.2°F-26.8°C 76% 8.0 mph W12.9 kmh W 12.0 mph19.3 kmh 30.85 in1044.7 mb 0.00 in0.0 mm 0.00 in0.0 mm 0.00 in0.0 mm
08:10 AM -10.9°F-23.8°C -16.3°F-26.8°C 76% 6.0 mph NW9.7 kmh NW -- 30.84 in1044.4 mb 0.00 in0.0 mm 0.00 in0.0 mm 0.00 in0.0 mm
08:15 AM -10.9°F-23.8°C -16.3°F-26.8°C 76% 4.0 mph W6.4 kmh W -- 30.85 in1044.7 mb 0.00 in0.0 mm 0.00 in0.0 mm 0.00 in0.0 mm
08:20 AM -10.9°F-23.8°C -16.3°F-26.8°C 76% 8.0 mph W12.9 kmh W -- 30.85 in1044.7 mb 0.00 in0.0 mm 0.00 in0.0 mm 0.00 in0.0 mm
08:25 AM -10.9°F-23.8°C -16.3°F-26.8°C 76% 8.0 mph WNW12.9 kmh WNW -- 30.85 in1044.7 mb 0.00 in0.0 mm 0.00 in0.0 mm 0.00 in0.0 mm
08:30 AM -11.0°F-23.9°C -16.4°F-26.9°C 76% 11.0 mph W17.7 kmh W -- 30.85 in1044.7 mb 0.00 in0.0 mm 0.00 in0.0 mm 0.00 in0.0 mm
08:35 AM -11.0°F-23.9°C -16.4°F-26.9°C 76% 5.0 mph W8.0 kmh W -- 30.85 in1044.7 mb 0.00 in0.0 mm 0.00 in0.0 mm 0.00 in0.0 mm
08:40 AM -11.1°F-23.9°C -16.5°F-26.9°C 76% 5.0 mph W8.0 kmh W -- 30.85 in1044.7 mb 0.00 in0.0 mm 0.00 in0.0 mm 0.00 in0.0 mm
08:45 AM -11.0°F-23.9°C -16.4°F-26.9°C 76% 7.0 mph W11.3 kmh W -- 30.85 in1044.7 mb 0.00 in0.0 mm 0.00 in0.0 mm 0.00 in0.0 mm
08:50 AM -11.0°F-23.9°C -16.4°F-26.9°C 76% 10.0 mph W16.1 kmh W 12.0 mph19.3 kmh 30.86 in1045.0 mb 0.00 in0.0 mm 0.00 in0.0 mm 0.00 in0.0 mm
08:55 AM -11.0°F-23.9°C -16.4°F-26.9°C 76% 5.0 mph W8.0 kmh W 12.0 mph19.3 kmh 30.86 in1045.0 mb 0.00 in0.0 mm 0.00 in0.0 mm 0.00 in0.0 mm
09:00 AM -10.9°F-23.8°C -16.3°F-26.8°C 76% 9.0 mph W14.5 kmh W -- 30.86 in1045.0 mb 0.00 in0.0 mm 0.00 in0.0 mm 0.00 in0.0 mm
09:05 AM -10.9°F-23.8°C -16.3°F-26.8°C 76% 6.0 mph WNW9.7 kmh WNW -- 30.86 in1045.0 mb 0.00 in0.0 mm 0.00 in0.0 mm 0.00 in0.0 mm
09:10 AM -10.8°F-23.8°C -16.2°F-26.8°C 76% 8.0 mph W12.9 kmh W -- 30.86 in1045.0 mb 0.00 in0.0 mm 0.00 in0.0 mm 0.00 in0.0 mm
09:15 AM -10.8°F-23.8°C -16.2°F-26.8°C 76% 7.0 mph W11.3 kmh W -- 30.86 in1045.0 mb 0.00 in0.0 mm 0.00 in0.0 mm 0.00 in0.0 mm
09:20 AM -10.7°F-23.7°C -16.1°F-26.7°C 76% 7.0 mph WNW11.3 kmh WNW -- 30.86 in1045.0 mb 0.00 in0.0 mm 0.00 in0.0 mm 0.00 in0.0 mm
09:25 AM -10.7°F-23.7°C -16.1°F-26.7°C 76% 9.0 mph W14.5 kmh W -- 30.86 in1045.0 mb 0.00 in0.0 mm 0.00 in0.0 mm 0.00 in0.0 mm
09:30 AM -10.6°F-23.7°C -16.0°F-26.7°C 76% 5.0 mph W8.0 kmh W -- 30.86 in1045.0 mb 0.00 in0.0 mm 0.00 in0.0 mm 0.00 in0.0 mm
09:35 AM -10.4°F-23.6°C -15.8°F-26.6°C 76% 5.0 mph W8.0 kmh W -- 30.87 in1045.4 mb 0.00 in0.0 mm 0.00 in0.0 mm 0.00 in0.0 mm
09:40 AM -10.3°F-23.5°C -15.7°F-26.5°C 76% 5.0 mph WNW8.0 kmh WNW 10.0 mph16.1 kmh 30.87 in1045.4 mb 0.00 in0.0 mm 0.00 in0.0 mm 0.00 in0.0 mm
09:45 AM -10.2°F-23.4°C -15.6°F-26.4°C 76% 7.0 mph W11.3 kmh W 10.0 mph16.1 kmh 30.87 in1045.4 mb 0.00 in0.0 mm 0.00 in0.0 mm 0.00 in0.0 mm
09:50 AM -10.0°F-23.3°C -15.5°F-26.4°C 76% 5.0 mph WNW8.0 kmh WNW -- 30.87 in1045.4 mb 0.00 in0.0 mm 0.00 in0.0 mm 0.00 in0.0 mm
09:55 AM -9.8°F-23.2°C -15.3°F-26.3°C 76% 7.0 mph WNW11.3 kmh WNW -- 30.87 in1045.4 mb 0.00 in0.0 mm 0.00 in0.0 mm 0.00 in0.0 mm
10:00 AM -9.8°F-23.2°C -15.5°F-26.4°C 75% 9.0 mph NW14.5 kmh NW -- 30.88 in1045.7 mb 0.00 in0.0 mm 0.00 in0.0 mm 0.00 in0.0 mm
10:05 AM -9.6°F-23.1°C -15.3°F-26.3°C 75% 5.0 mph NW8.0 kmh NW -- 30.88 in1045.7 mb 0.00 in0.0 mm 0.00 in0.0 mm 0.00 in0.0 mm
10:10 AM -9.6°F-23.1°C -15.3°F-26.3°C 75% 7.0 mph WNW11.3 kmh WNW -- 30.87 in1045.4 mb 0.00 in0.0 mm 0.00 in0.0 mm 0.00 in0.0 mm
10:15 AM -9.4°F-23.0°C -15.1°F-26.2°C 75% 8.0 mph NW12.9 kmh NW -- 30.88 in1045.7 mb 0.00 in0.0 mm 0.00 in0.0 mm 0.00 in0.0 mm
10:20 AM -9.3°F-22.9°C -15.3°F-26.3°C 74% 11.0 mph NW17.7 kmh NW -- 30.88 in1045.7 mb 0.00 in0.0 mm 0.00 in0.0 mm 0.00 in0.0 mm
10:25 AM -9.0°F-22.8°C -14.7°F-25.9°C 75% 6.0 mph W9.7 kmh W -- 30.88 in1045.7 mb 0.00 in0.0 mm 0.00 in0.0 mm 0.00 in0.0 mm
10:30 AM -8.8°F-22.7°C -14.8°F-26.0°C 74% 5.0 mph NW8.0 kmh NW 12.0 mph19.3 kmh 30.88 in1045.7 mb 0.00 in0.0 mm 0.00 in0.0 mm 0.00 in0.0 mm
10:35 AM -8.6°F-22.6°C -14.6°F-25.9°C 74% 8.0 mph W12.9 kmh W 12.0 mph19.3 kmh 30.88 in1045.7 mb 0.00 in0.0 mm 0.00 in0.0 mm 0.00 in0.0 mm
10:40 AM -8.6°F-22.6°C -14.6°F-25.9°C 74% 5.0 mph W8.0 kmh W -- 30.88 in1045.7 mb 0.00 in0.0 mm 0.00 in0.0 mm 0.00 in0.0 mm
10:45 AM -8.4°F-22.4°C -14.4°F-25.8°C 74% 5.0 mph WNW8.0 kmh WNW -- 30.88 in1045.7 mb 0.00 in0.0 mm 0.00 in0.0 mm 0.00 in0.0 mm
10:50 AM -8.1°F-22.3°C -14.1°F-25.6°C 74% 4.0 mph WNW6.4 kmh WNW -- 30.88 in1045.7 mb 0.00 in0.0 mm 0.00 in0.0 mm 0.00 in0.0 mm
10:55 AM -7.8°F-22.1°C -13.8°F-25.4°C 74% 9.0 mph NW14.5 kmh NW -- 30.88 in1045.7 mb 0.00 in0.0 mm 0.00 in0.0 mm 0.00 in0.0 mm
11:00 AM -7.7°F-22.1°C -14.0°F-25.6°C 73% 6.0 mph W9.7 kmh W -- 30.88 in1045.7 mb 0.00 in0.0 mm 0.00 in0.0 mm 0.00 in0.0 mm
11:05 AM -7.8°F-22.1°C -14.1°F-25.6°C 73% 6.0 mph NW9.7 kmh NW -- 30.88 in1045.7 mb 0.00 in0.0 mm 0.00 in0.0 mm 0.00 in0.0 mm
11:10 AM -7.5°F-21.9°C -13.8°F-25.4°C 73% 7.0 mph WNW11.3 kmh WNW -- 30.88 in1045.7 mb 0.00 in0.0 mm 0.00 in0.0 mm 0.00 in0.0 mm
11:15 AM -7.4°F-21.9°C -13.7°F-25.4°C 73% 7.0 mph W11.3 kmh W -- 30.88 in1045.7 mb 0.00 in0.0 mm 0.00 in0.0 mm 0.00 in0.0 mm
11:20 AM -7.3°F-21.8°C -13.9°F-25.5°C 72% 5.0 mph WNW8.0 kmh WNW 12.0 mph19.3 kmh 30.88 in1045.7 mb 0.00 in0.0 mm 0.00 in0.0 mm 0.00 in0.0 mm
11:25 AM -7.1°F-21.7°C -13.7°F-25.4°C 72% 4.0 mph W6.4 kmh W 12.0 mph19.3 kmh 30.88 in1045.7 mb 0.00 in0.0 mm 0.00 in0.0 mm 0.00 in0.0 mm
11:30 AM -6.9°F-21.6°C -13.5°F-25.3°C 72% 6.0 mph WNW9.7 kmh WNW -- 30.88 in1045.7 mb 0.00 in0.0 mm 0.00 in0.0 mm 0.00 in0.0 mm
11:35 AM -7.0°F-21.7°C -13.6°F-25.3°C 72% 8.0 mph WSW12.9 kmh WSW -- 30.88 in1045.7 mb 0.00 in0.0 mm 0.00 in0.0 mm 0.00 in0.0 mm
11:40 AM -6.8°F-21.6°C -13.4°F-25.2°C 72% 3.0 mph W4.8 kmh W -- 30.88 in1045.7 mb 0.00 in0.0 mm 0.00 in0.0 mm 0.00 in0.0 mm
11:45 AM -6.6°F-21.4°C -13.2°F-25.1°C 72% 5.0 mph WSW8.0 kmh WSW -- 30.88 in1045.7 mb 0.00 in0.0 mm 0.00 in0.0 mm 0.00 in0.0 mm
11:50 AM -6.3°F-21.3°C -12.9°F-24.9°C 72% 3.0 mph WSW4.8 kmh WSW -- 30.88 in1045.7 mb 0.00 in0.0 mm 0.00 in0.0 mm 0.00 in0.0 mm
11:55 AM -6.3°F-21.3°C -12.9°F-24.9°C 72% 5.0 mph NW8.0 kmh NW -- 30.88 in1045.7 mb 0.00 in0.0 mm 0.00 in0.0 mm 0.00 in0.0 mm
12:00 PM -6.1°F-21.2°C -12.7°F-24.8°C 72% 10.0 mph W16.1 kmh W -- 30.87 in1045.4 mb 0.00 in0.0 mm 0.00 in0.0 mm 0.00 in0.0 mm
12:05 PM -5.9°F-21.1°C -12.8°F-24.9°C 71% 7.0 mph WSW11.3 kmh WSW -- 30.87 in1045.4 mb 0.00 in0.0 mm 0.00 in0.0 mm 0.00 in0.0 mm
12:10 PM -5.5°F-20.8°C -12.2°F-24.6°C 72% 6.0 mph W9.7 kmh W 11.0 mph17.7 kmh 30.86 in1045.0 mb 0.00 in0.0 mm 0.00 in0.0 mm 0.00 in0.0 mm
12:15 PM -5.5°F-20.8°C -12.4°F-24.7°C 71% 6.0 mph WSW9.7 kmh WSW 11.0 mph17.7 kmh 30.86 in1045.0 mb 0.00 in0.0 mm 0.00 in0.0 mm 0.00 in0.0 mm
12:20 PM -5.3°F-20.7°C -12.2°F-24.6°C 71% 6.0 mph W9.7 kmh W -- 30.86 in1045.0 mb 0.00 in0.0 mm 0.00 in0.0 mm 0.00 in0.0 mm
12:25 PM -5.0°F-20.6°C -12.0°F-24.4°C 71% 12.0 mph NW19.3 kmh NW -- 30.86 in1045.0 mb 0.00 in0.0 mm 0.00 in0.0 mm 0.00 in0.0 mm
12:30 PM -4.7°F-20.4°C -11.7°F-24.3°C 71% 5.0 mph W8.0 kmh W -- 30.86 in1045.0 mb 0.00 in0.0 mm 0.00 in0.0 mm 0.00 in0.0 mm
12:35 PM -4.4°F-20.2°C -11.4°F-24.1°C 71% 4.0 mph W6.4 kmh W -- 30.85 in1044.7 mb 0.00 in0.0 mm 0.00 in0.0 mm 0.00 in0.0 mm
12:40 PM -4.0°F-20.0°C -11.0°F-23.9°C 71% 6.0 mph W9.7 kmh W -- 30.85 in1044.7 mb 0.00 in0.0 mm 0.00 in0.0 mm 0.00 in0.0 mm
12:45 PM -3.8°F-19.9°C -11.1°F-23.9°C 70% 3.0 mph WNW4.8 kmh WNW -- 30.85 in1044.7 mb 0.00 in0.0 mm 0.00 in0.0 mm 0.00 in0.0 mm
12:50 PM -3.6°F-19.8°C -10.9°F-23.8°C 70% 8.0 mph W12.9 kmh W -- 30.85 in1044.7 mb 0.00 in0.0 mm 0.00 in0.0 mm 0.00 in0.0 mm
12:55 PM -3.7°F-19.8°C -11.3°F-24.1°C 69% 9.0 mph WSW14.5 kmh WSW -- 30.85 in1044.7 mb 0.00 in0.0 mm 0.00 in0.0 mm 0.00 in0.0 mm
01:00 PM -3.5°F-19.7°C -11.1°F-23.9°C 69% 4.0 mph NW6.4 kmh NW 12.0 mph19.3 kmh 30.85 in1044.7 mb 0.00 in0.0 mm 0.00 in0.0 mm 0.00 in0.0 mm
01:05 PM -3.1°F-19.5°C -10.4°F-23.6°C 70% 11.0 mph W17.7 kmh W 12.0 mph19.3 kmh 30.85 in1044.7 mb 0.00 in0.0 mm 0.00 in0.0 mm 0.00 in0.0 mm
01:10 PM -2.8°F-19.3°C -10.4°F-23.6°C 69% 6.0 mph WNW9.7 kmh WNW -- 30.84 in1044.4 mb 0.00 in0.0 mm 0.00 in0.0 mm 0.00 in0.0 mm
01:15 PM -2.5°F-19.2°C -10.1°F-23.4°C 69% 6.0 mph W9.7 kmh W -- 30.84 in1044.4 mb 0.00 in0.0 mm 0.00 in0.0 mm 0.00 in0.0 mm
01:20 PM -2.4°F-19.1°C -10.3°F-23.5°C 68% 4.0 mph WNW6.4 kmh WNW -- 30.84 in1044.4 mb 0.00 in0.0 mm 0.00 in0.0 mm 0.00 in0.0 mm
01:25 PM -1.8°F-18.8°C -9.4°F-23.0°C 69% 5.0 mph WSW8.0 kmh WSW -- 30.84 in1044.4 mb 0.00 in0.0 mm 0.00 in0.0 mm 0.00 in0.0 mm
01:30 PM -1.6°F-18.7°C -9.3°F-22.9°C 69% 7.0 mph W11.3 kmh W -- 30.84 in1044.4 mb 0.00 in0.0 mm 0.00 in0.0 mm 0.00 in0.0 mm
01:35 PM -1.9°F-18.8°C -9.8°F-23.2°C 68% 5.0 mph NW8.0 kmh NW -- 30.84 in1044.4 mb 0.00 in0.0 mm 0.00 in0.0 mm 0.00 in0.0 mm
01:40 PM -1.7°F-18.7°C -9.6°F-23.1°C 68% 8.0 mph WNW12.9 kmh WNW -- 30.84 in1044.4 mb 0.00 in0.0 mm 0.00 in0.0 mm 0.00 in0.0 mm
01:45 PM -1.5°F-18.6°C -9.5°F-23.1°C 68% 4.0 mph WSW6.4 kmh WSW -- 30.84 in1044.4 mb 0.00 in0.0 mm 0.00 in0.0 mm 0.00 in0.0 mm
01:50 PM -1.0°F-18.3°C -8.7°F-22.6°C 69% 6.0 mph W9.7 kmh W 12.0 mph19.3 kmh 30.83 in1044.0 mb 0.00 in0.0 mm 0.00 in0.0 mm 0.00 in0.0 mm
01:55 PM -0.8°F-18.2°C -8.8°F-22.7°C 68% 7.0 mph NW11.3 kmh NW 12.0 mph19.3 kmh 30.83 in1044.0 mb 0.00 in0.0 mm 0.00 in0.0 mm 0.00 in0.0 mm
02:00 PM -0.7°F-18.2°C -8.7°F-22.6°C 68% 5.0 mph WSW8.0 kmh WSW -- 30.83 in1044.0 mb 0.00 in0.0 mm 0.00 in0.0 mm 0.00 in0.0 mm
02:05 PM -0.6°F-18.1°C -8.6°F-22.6°C 68% 5.0 mph WSW8.0 kmh WSW -- 30.83 in1044.0 mb 0.00 in0.0 mm 0.00 in0.0 mm 0.00 in0.0 mm
02:10 PM -0.3°F-17.9°C -8.3°F-22.4°C 68% 8.0 mph WSW12.9 kmh WSW -- 30.82 in1043.7 mb 0.00 in0.0 mm 0.00 in0.0 mm 0.00 in0.0 mm
02:15 PM -0.1°F-17.8°C -8.4°F-22.4°C 67% 7.0 mph WSW11.3 kmh WSW -- 30.83 in1044.0 mb 0.00 in0.0 mm 0.00 in0.0 mm 0.00 in0.0 mm
02:20 PM -0.3°F-17.9°C -8.6°F-22.6°C 67% 7.0 mph WNW11.3 kmh WNW -- 30.82 in1043.7 mb 0.00 in0.0 mm 0.00 in0.0 mm 0.00 in0.0 mm
02:25 PM -0.1°F-17.8°C -8.4°F-22.4°C 67% 9.0 mph W14.5 kmh W -- 30.82 in1043.7 mb 0.00 in0.0 mm 0.00 in0.0 mm 0.00 in0.0 mm
02:30 PM 0.1°F-17.7°C -8.2°F-22.3°C 67% 5.0 mph WNW8.0 kmh WNW -- 30.83 in1044.0 mb 0.00 in0.0 mm 0.00 in0.0 mm 0.00 in0.0 mm
02:35 PM 0.4°F-17.6°C -7.9°F-22.2°C 67% 6.0 mph WSW9.7 kmh WSW -- 30.82 in1043.7 mb 0.00 in0.0 mm 0.00 in0.0 mm 0.00 in0.0 mm
02:40 PM 0.8°F-17.3°C -7.5°F-21.9°C 67% 9.0 mph WNW14.5 kmh WNW 11.0 mph17.7 kmh 30.82 in1043.7 mb 0.00 in0.0 mm 0.00 in0.0 mm 0.00 in0.0 mm
02:45 PM 0.9°F-17.3°C -7.5°F-21.9°C 67% 5.0 mph WSW8.0 kmh WSW 11.0 mph17.7 kmh 30.82 in1043.7 mb 0.00 in0.0 mm 0.00 in0.0 mm 0.00 in0.0 mm
02:50 PM 1.1°F-17.2°C -7.6°F-22.0°C 66% 7.0 mph W11.3 kmh W -- 30.82 in1043.7 mb 0.00 in0.0 mm 0.00 in0.0 mm 0.00 in0.0 mm
02:55 PM 1.1°F-17.2°C -7.6°F-22.0°C 66% 5.0 mph WSW8.0 kmh WSW -- 30.82 in1043.7 mb 0.00 in0.0 mm 0.00 in0.0 mm 0.00 in0.0 mm
03:00 PM 0.9°F-17.3°C -8.1°F-22.3°C 65% 5.0 mph W8.0 kmh W -- 30.82 in1043.7 mb 0.00 in0.0 mm 0.00 in0.0 mm 0.00 in0.0 mm
03:05 PM 1.0°F-17.2°C -7.7°F-22.1°C 66% 3.0 mph WSW4.8 kmh WSW -- 30.82 in1043.7 mb 0.00 in0.0 mm 0.00 in0.0 mm 0.00 in0.0 mm
03:10 PM 1.3°F-17.1°C -7.4°F-21.9°C 66% 5.0 mph W8.0 kmh W -- 30.82 in1043.7 mb 0.00 in0.0 mm 0.00 in0.0 mm 0.00 in0.0 mm
03:15 PM 1.4°F-17.0°C -7.6°F-22.0°C 65% 8.0 mph SW12.9 kmh SW -- 30.82 in1043.7 mb 0.00 in0.0 mm 0.00 in0.0 mm 0.00 in0.0 mm
03:20 PM 1.2°F-17.1°C -7.8°F-22.1°C 65% 4.0 mph WSW6.4 kmh WSW -- 30.82 in1043.7 mb 0.00 in0.0 mm 0.00 in0.0 mm 0.00 in0.0 mm
03:25 PM 1.3°F-17.1°C -7.7°F-22.1°C 65% 4.0 mph WSW6.4 kmh WSW -- 30.82 in1043.7 mb 0.00 in0.0 mm 0.00 in0.0 mm 0.00 in0.0 mm
03:30 PM 1.4°F-17.0°C -7.6°F-22.0°C 65% 6.0 mph W9.7 kmh W 11.0 mph17.7 kmh 30.82 in1043.7 mb 0.00 in0.0 mm 0.00 in0.0 mm 0.00 in0.0 mm
03:35 PM 1.7°F-16.8°C -7.3°F-21.8°C 65% 9.0 mph WSW14.5 kmh WSW 11.0 mph17.7 kmh 30.82 in1043.7 mb 0.00 in0.0 mm 0.00 in0.0 mm 0.00 in0.0 mm
03:40 PM 1.6°F-16.9°C -7.7°F-22.1°C 64% 5.0 mph WSW8.0 kmh WSW -- 30.82 in1043.7 mb 0.00 in0.0 mm 0.00 in0.0 mm 0.00 in0.0 mm
03:45 PM 1.7°F-16.8°C -7.3°F-21.8°C 65% 8.0 mph WSW12.9 kmh WSW -- 30.82 in1043.7 mb 0.00 in0.0 mm 0.00 in0.0 mm 0.00 in0.0 mm
03:50 PM 1.7°F-16.8°C -7.6°F-22.0°C 64% 7.0 mph WSW11.3 kmh WSW -- 30.82 in1043.7 mb 0.00 in0.0 mm 0.00 in0.0 mm 0.00 in0.0 mm
03:55 PM 1.8°F-16.8°C -7.2°F-21.8°C 65% 7.0 mph WSW11.3 kmh WSW -- 30.82 in1043.7 mb 0.00 in0.0 mm 0.00 in0.0 mm 0.00 in0.0 mm
04:00 PM 2.0°F-16.7°C -7.0°F-21.7°C 65% 7.0 mph W11.3 kmh W -- 30.83 in1044.0 mb 0.00 in0.0 mm 0.00 in0.0 mm 0.00 in0.0 mm
04:05 PM 2.0°F-16.7°C -7.3°F-21.8°C 64% 6.0 mph W9.7 kmh W -- 30.83 in1044.0 mb 0.00 in0.0 mm 0.00 in0.0 mm 0.00 in0.0 mm
04:10 PM 2.1°F-16.6°C -7.2°F-21.8°C 64% 5.0 mph W8.0 kmh W -- 30.82 in1043.7 mb 0.00 in0.0 mm 0.00 in0.0 mm 0.00 in0.0 mm
04:15 PM 2.1°F-16.6°C -4.8°F-20.4°C 72% 8.0 mph W12.9 kmh W -- 30.83 in1044.0 mb 0.00 in0.0 mm 0.00 in0.0 mm 0.00 in0.0 mm
04:20 PM 2.2°F-16.6°C -6.8°F-21.6°C 65% 7.0 mph W11.3 kmh W 11.0 mph17.7 kmh 30.83 in1044.0 mb 0.00 in0.0 mm 0.00 in0.0 mm 0.00 in0.0 mm
04:25 PM 2.3°F-16.5°C -6.7°F-21.5°C 65% 9.0 mph W14.5 kmh W 11.0 mph17.7 kmh 30.83 in1044.0 mb 0.00 in0.0 mm 0.00 in0.0 mm 0.00 in0.0 mm
04:30 PM 2.3°F-16.5°C -6.7°F-21.5°C 65% 8.0 mph W12.9 kmh W -- 30.82 in1043.7 mb 0.00 in0.0 mm 0.00 in0.0 mm 0.00 in0.0 mm
04:35 PM 2.2°F-16.6°C -7.1°F-21.7°C 64% 9.0 mph WNW14.5 kmh WNW -- 30.83 in1044.0 mb 0.00 in0.0 mm 0.00 in0.0 mm 0.00 in0.0 mm
04:40 PM 2.3°F-16.5°C -7.1°F-21.7°C 64% 10.0 mph WSW16.1 kmh WSW -- 30.83 in1044.0 mb 0.00 in0.0 mm 0.00 in0.0 mm 0.00 in0.0 mm
04:45 PM 2.3°F-16.5°C -6.7°F-21.5°C 65% 7.0 mph W11.3 kmh W -- 30.83 in1044.0 mb 0.00 in0.0 mm 0.00 in0.0 mm 0.00 in0.0 mm
04:50 PM 2.3°F-16.5°C -7.1°F-21.7°C 64% 7.0 mph W11.3 kmh W -- 30.83 in1044.0 mb 0.00 in0.0 mm 0.00 in0.0 mm 0.00 in0.0 mm
04:55 PM 2.3°F-16.5°C -6.7°F-21.5°C 65% 5.0 mph WSW8.0 kmh WSW -- 30.82 in1043.7 mb 0.00 in0.0 mm 0.00 in0.0 mm 0.00 in0.0 mm
05:00 PM 2.2°F-16.6°C -6.8°F-21.6°C 65% 7.0 mph W11.3 kmh W -- 30.83 in1044.0 mb 0.00 in0.0 mm 0.00 in0.0 mm 0.00 in0.0 mm
05:05 PM 2.1°F-16.6°C -6.9°F-21.6°C 65% 6.0 mph W9.7 kmh W -- 30.83 in1044.0 mb 0.00 in0.0 mm 0.00 in0.0 mm 0.00 in0.0 mm
05:10 PM 2.0°F-16.7°C -7.0°F-21.7°C 65% 2.0 mph W3.2 kmh W 11.0 mph17.7 kmh 30.83 in1044.0 mb 0.00 in0.0 mm 0.00 in0.0 mm 0.00 in0.0 mm
05:15 PM 2.0°F-16.7°C -7.0°F-21.7°C 65% 5.0 mph WNW8.0 kmh WNW 11.0 mph17.7 kmh 30.83 in1044.0 mb 0.00 in0.0 mm 0.00 in0.0 mm 0.00 in0.0 mm
05:20 PM 1.9°F-16.7°C -7.1°F-21.7°C 65% 6.0 mph W9.7 kmh W -- 30.83 in1044.0 mb 0.00 in0.0 mm 0.00 in0.0 mm 0.00 in0.0 mm
05:25 PM 1.8°F-16.8°C -7.2°F-21.8°C 65% 4.0 mph W6.4 kmh W -- 30.83 in1044.0 mb 0.00 in0.0 mm 0.00 in0.0 mm 0.00 in0.0 mm
05:30 PM 1.7°F-16.8°C -7.3°F-21.8°C 65% 5.0 mph W8.0 kmh W -- 30.83 in1044.0 mb 0.00 in0.0 mm 0.00 in0.0 mm 0.00 in0.0 mm
05:35 PM 1.5°F-16.9°C -7.2°F-21.8°C 66% 6.0 mph W9.7 kmh W -- 30.83 in1044.0 mb 0.00 in0.0 mm 0.00 in0.0 mm 0.00 in0.0 mm
05:40 PM 1.4°F-17.0°C -7.3°F-21.8°C 66% 4.0 mph W6.4 kmh W -- 30.84 in1044.4 mb 0.00 in0.0 mm 0.00 in0.0 mm 0.00 in0.0 mm
05:45 PM 1.2°F-17.1°C -7.5°F-21.9°C 66% 6.0 mph W9.7 kmh W -- 30.84 in1044.4 mb 0.00 in0.0 mm 0.00 in0.0 mm 0.00 in0.0 mm
05:50 PM 1.1°F-17.2°C -7.6°F-22.0°C 66% 3.0 mph W4.8 kmh W -- 30.83 in1044.0 mb 0.00 in0.0 mm 0.00 in0.0 mm 0.00 in0.0 mm
05:55 PM 0.9°F-17.3°C -7.5°F-21.9°C 67% 7.0 mph W11.3 kmh W -- 30.83 in1044.0 mb 0.00 in0.0 mm 0.00 in0.0 mm 0.00 in0.0 mm
06:00 PM 0.9°F-17.3°C -7.5°F-21.9°C 67% 4.0 mph W6.4 kmh W 9.0 mph14.5 kmh 30.84 in1044.4 mb 0.00 in0.0 mm 0.00 in0.0 mm 0.00 in0.0 mm
06:05 PM 0.7°F-17.4°C -7.3°F-21.8°C 68% 6.0 mph W9.7 kmh W 9.0 mph14.5 kmh 30.84 in1044.4 mb 0.00 in0.0 mm 0.00 in0.0 mm 0.00 in0.0 mm
06:10 PM 0.6°F-17.4°C -7.4°F-21.9°C 68% 6.0 mph W9.7 kmh W -- 30.83 in1044.0 mb 0.00 in0.0 mm 0.00 in0.0 mm 0.00 in0.0 mm
06:15 PM 0.7°F-17.4°C -7.3°F-21.8°C 68% 4.0 mph W6.4 kmh W -- 30.83 in1044.0 mb 0.00 in0.0 mm 0.00 in0.0 mm 0.00 in0.0 mm
06:20 PM 0.5°F-17.5°C -7.5°F-21.9°C 68% 3.0 mph W4.8 kmh W -- 30.84 in1044.4 mb 0.00 in0.0 mm 0.00 in0.0 mm 0.00 in0.0 mm
06:25 PM 0.5°F-17.5°C -7.5°F-21.9°C 68% 4.0 mph W6.4 kmh W -- 30.83 in1044.0 mb 0.00 in0.0 mm 0.00 in0.0 mm 0.00 in0.0 mm
06:30 PM 0.6°F-17.4°C -7.4°F-21.9°C 68% 5.0 mph WSW8.0 kmh WSW -- 30.83 in1044.0 mb 0.00 in0.0 mm 0.00 in0.0 mm 0.00 in0.0 mm
06:35 PM 0.5°F-17.5°C -7.5°F-21.9°C 68% 8.0 mph W12.9 kmh W -- 30.83 in1044.0 mb 0.00 in0.0 mm 0.00 in0.0 mm 0.00 in0.0 mm
06:40 PM 0.3°F-17.6°C -7.7°F-22.1°C 68% 3.0 mph WNW4.8 kmh WNW -- 30.83 in1044.0 mb 0.00 in0.0 mm 0.00 in0.0 mm 0.00 in0.0 mm
06:45 PM 0.2°F-17.7°C -7.5°F-21.9°C 69% 4.0 mph W6.4 kmh W -- 30.83 in1044.0 mb 0.00 in0.0 mm 0.00 in0.0 mm 0.00 in0.0 mm
06:50 PM 0.2°F-17.7°C -7.5°F-21.9°C 69% 4.0 mph WSW6.4 kmh WSW 8.0 mph12.9 kmh 30.83 in1044.0 mb 0.00 in0.0 mm 0.00 in0.0 mm 0.00 in0.0 mm
06:55 PM 0.1°F-17.7°C -7.6°F-22.0°C 69% 3.0 mph W4.8 kmh W 8.0 mph12.9 kmh 30.83 in1044.0 mb 0.00 in0.0 mm 0.00 in0.0 mm 0.00 in0.0 mm
07:00 PM 0.0°F-17.8°C -7.7°F-22.1°C 69% 8.0 mph W12.9 kmh W -- 30.83 in1044.0 mb 0.00 in0.0 mm 0.00 in0.0 mm 0.00 in0.0 mm
07:05 PM 0.0°F-17.8°C -7.7°F-22.1°C 69% 5.0 mph W8.0 kmh W -- 30.84 in1044.4 mb 0.00 in0.0 mm 0.00 in0.0 mm 0.00 in0.0 mm
07:10 PM 0.1°F-17.7°C -7.6°F-22.0°C 69% 4.0 mph W6.4 kmh W -- 30.83 in1044.0 mb 0.00 in0.0 mm 0.00 in0.0 mm 0.00 in0.0 mm
07:15 PM 0.1°F-17.7°C -7.6°F-22.0°C 69% 4.0 mph W6.4 kmh W -- 30.83 in1044.0 mb 0.00 in0.0 mm 0.00 in0.0 mm 0.00 in0.0 mm
07:20 PM 0.0°F-17.8°C -7.7°F-22.1°C 69% 6.0 mph WNW9.7 kmh WNW -- 30.83 in1044.0 mb 0.00 in0.0 mm 0.00 in0.0 mm 0.00 in0.0 mm
07:25 PM 0.0°F-17.8°C -7.7°F-22.1°C 69% 6.0 mph W9.7 kmh W -- 30.83 in1044.0 mb 0.00 in0.0 mm 0.00 in0.0 mm 0.00 in0.0 mm
07:30 PM 0.2°F-17.7°C -7.5°F-21.9°C 69% 8.0 mph W12.9 kmh W -- 30.83 in1044.0 mb 0.00 in0.0 mm 0.00 in0.0 mm 0.00 in0.0 mm
07:35 PM 0.4°F-17.6°C -7.6°F-22.0°C 68% 4.0 mph WSW6.4 kmh WSW -- 30.83 in1044.0 mb 0.00 in0.0 mm 0.00 in0.0 mm 0.00 in0.0 mm
07:40 PM 0.3°F-17.6°C -7.7°F-22.1°C 68% 5.0 mph W8.0 kmh W 10.0 mph16.1 kmh 30.82 in1043.7 mb 0.00 in0.0 mm 0.00 in0.0 mm 0.00 in0.0 mm
07:45 PM 0.2°F-17.7°C -7.8°F-22.1°C 68% 6.0 mph W9.7 kmh W 10.0 mph16.1 kmh 30.82 in1043.7 mb 0.00 in0.0 mm 0.00 in0.0 mm 0.00 in0.0 mm
07:50 PM 0.2°F-17.7°C -7.8°F-22.1°C 68% 8.0 mph W12.9 kmh W -- 30.83 in1044.0 mb 0.00 in0.0 mm 0.00 in0.0 mm 0.00 in0.0 mm
07:55 PM 0.2°F-17.7°C -7.8°F-22.1°C 68% 4.0 mph W6.4 kmh W -- 30.83 in1044.0 mb 0.00 in0.0 mm 0.00 in0.0 mm 0.00 in0.0 mm
08:00 PM 0.0°F-17.8°C -8.0°F-22.2°C 68% 6.0 mph W9.7 kmh W -- 30.83 in1044.0 mb 0.00 in0.0 mm 0.00 in0.0 mm 0.00 in0.0 mm
08:05 PM 0.0°F-17.8°C -8.0°F-22.2°C 68% 4.0 mph WSW6.4 kmh WSW -- 30.83 in1044.0 mb 0.00 in0.0 mm 0.00 in0.0 mm 0.00 in0.0 mm
08:10 PM -0.1°F-17.8°C -7.8°F-22.1°C 69% 5.0 mph WNW8.0 kmh WNW -- 30.83 in1044.0 mb 0.00 in0.0 mm 0.00 in0.0 mm 0.00 in0.0 mm
08:15 PM -0.2°F-17.9°C -7.9°F-22.2°C 69% 5.0 mph W8.0 kmh W -- 30.83 in1044.0 mb 0.00 in0.0 mm 0.00 in0.0 mm 0.00 in0.0 mm
08:20 PM -0.3°F-17.9°C -8.0°F-22.2°C 69% 6.0 mph W9.7 kmh W -- 30.83 in1044.0 mb 0.00 in0.0 mm 0.00 in0.0 mm 0.00 in0.0 mm
08:25 PM -0.5°F-18.1°C -8.2°F-22.3°C 69% 3.0 mph WSW4.8 kmh WSW -- 30.83 in1044.0 mb 0.00 in0.0 mm 0.00 in0.0 mm 0.00 in0.0 mm
08:30 PM -0.7°F-18.2°C -8.1°F-22.3°C 70% 3.0 mph W4.8 kmh W 7.0 mph11.3 kmh 30.83 in1044.0 mb 0.00 in0.0 mm 0.00 in0.0 mm 0.00 in0.0 mm
08:35 PM -0.7°F-18.2°C -8.1°F-22.3°C 70% 4.0 mph WSW6.4 kmh WSW 7.0 mph11.3 kmh 30.82 in1043.7 mb 0.00 in0.0 mm 0.00 in0.0 mm 0.00 in0.0 mm
08:40 PM -0.6°F-18.1°C -8.0°F-22.2°C 70% 5.0 mph W8.0 kmh W -- 30.82 in1043.7 mb 0.00 in0.0 mm 0.00 in0.0 mm 0.00 in0.0 mm
08:45 PM -0.6°F-18.1°C -8.0°F-22.2°C 70% 7.0 mph W11.3 kmh W -- 30.82 in1043.7 mb 0.00 in0.0 mm 0.00 in0.0 mm 0.00 in0.0 mm
08:50 PM -0.6°F-18.1°C -8.0°F-22.2°C 70% 6.0 mph WSW9.7 kmh WSW -- 30.82 in1043.7 mb 0.00 in0.0 mm 0.00 in0.0 mm 0.00 in0.0 mm
08:55 PM -0.4°F-18.0°C -7.8°F-22.1°C 70% 6.0 mph W9.7 kmh W -- 30.82 in1043.7 mb 0.00 in0.0 mm 0.00 in0.0 mm 0.00 in0.0 mm
09:00 PM -0.4°F-18.0°C -7.8°F-22.1°C 70% 3.0 mph WNW4.8 kmh WNW -- 30.82 in1043.7 mb 0.00 in0.0 mm 0.00 in0.0 mm 0.00 in0.0 mm
09:05 PM -0.4°F-18.0°C -7.8°F-22.1°C 70% 3.0 mph W4.8 kmh W -- 30.83 in1044.0 mb 0.00 in0.0 mm 0.00 in0.0 mm 0.00 in0.0 mm
09:10 PM -0.5°F-18.1°C -7.9°F-22.2°C 70% 6.0 mph W9.7 kmh W -- 30.83 in1044.0 mb 0.00 in0.0 mm 0.00 in0.0 mm 0.00 in0.0 mm
09:15 PM -0.5°F-18.1°C -7.9°F-22.2°C 70% 6.0 mph WNW9.7 kmh WNW -- 30.83 in1044.0 mb 0.00 in0.0 mm 0.00 in0.0 mm 0.00 in0.0 mm
09:20 PM -0.6°F-18.1°C -8.0°F-22.2°C 70% 4.0 mph W6.4 kmh W 7.0 mph11.3 kmh 30.83 in1044.0 mb 0.00 in0.0 mm 0.00 in0.0 mm 0.00 in0.0 mm
09:25 PM -0.6°F-18.1°C -8.0°F-22.2°C 70% 7.0 mph W11.3 kmh W 7.0 mph11.3 kmh 30.82 in1043.7 mb 0.00 in0.0 mm 0.00 in0.0 mm 0.00 in0.0 mm
09:30 PM -0.6°F-18.1°C -8.0°F-22.2°C 70% 5.0 mph W8.0 kmh W -- 30.82 in1043.7 mb 0.00 in0.0 mm 0.00 in0.0 mm 0.00 in0.0 mm
09:35 PM -0.7°F-18.2°C -8.1°F-22.3°C 70% 8.0 mph WSW12.9 kmh WSW -- 30.82 in1043.7 mb 0.00 in0.0 mm 0.00 in0.0 mm 0.00 in0.0 mm
09:40 PM -0.8°F-18.2°C -8.2°F-22.3°C 70% 4.0 mph WSW6.4 kmh WSW -- 30.82 in1043.7 mb 0.00 in0.0 mm 0.00 in0.0 mm 0.00 in0.0 mm
09:45 PM -0.8°F-18.2°C -8.2°F-22.3°C 70% 5.0 mph WSW8.0 kmh WSW -- 30.82 in1043.7 mb 0.00 in0.0 mm 0.00 in0.0 mm 0.00 in0.0 mm
09:50 PM -0.9°F-18.3°C -8.3°F-22.4°C 70% 5.0 mph W8.0 kmh W -- 30.82 in1043.7 mb 0.00 in0.0 mm 0.00 in0.0 mm 0.00 in0.0 mm
09:55 PM -1.0°F-18.3°C -8.4°F-22.4°C 70% 6.0 mph W9.7 kmh W -- 30.82 in1043.7 mb 0.00 in0.0 mm 0.00 in0.0 mm 0.00 in0.0 mm
10:00 PM -1.1°F-18.4°C -8.2°F-22.3°C 71% 6.0 mph W9.7 kmh W -- 30.82 in1043.7 mb 0.00 in0.0 mm 0.00 in0.0 mm 0.00 in0.0 mm
10:05 PM -1.2°F-18.4°C -8.3°F-22.4°C 71% 5.0 mph W8.0 kmh W -- 30.82 in1043.7 mb 0.00 in0.0 mm 0.00 in0.0 mm 0.00 in0.0 mm
10:10 PM -1.3°F-18.5°C -8.4°F-22.4°C 71% 5.0 mph W8.0 kmh W 10.0 mph16.1 kmh 30.82 in1043.7 mb 0.00 in0.0 mm 0.00 in0.0 mm 0.00 in0.0 mm
10:15 PM -1.4°F-18.6°C -8.5°F-22.5°C 71% 2.0 mph W3.2 kmh W 10.0 mph16.1 kmh 30.82 in1043.7 mb 0.00 in0.0 mm 0.00 in0.0 mm 0.00 in0.0 mm
10:20 PM -1.5°F-18.6°C -8.6°F-22.6°C 71% 7.0 mph W11.3 kmh W -- 30.82 in1043.7 mb 0.00 in0.0 mm 0.00 in0.0 mm 0.00 in0.0 mm
10:25 PM -1.6°F-18.7°C -8.4°F-22.4°C 72% 5.0 mph W8.0 kmh W -- 30.82 in1043.7 mb 0.00 in0.0 mm 0.00 in0.0 mm 0.00 in0.0 mm
10:30 PM -1.7°F-18.7°C -8.5°F-22.5°C 72% 7.0 mph W11.3 kmh W -- 30.82 in1043.7 mb 0.00 in0.0 mm 0.00 in0.0 mm 0.00 in0.0 mm
10:35 PM -1.7°F-18.7°C -8.5°F-22.5°C 72% 5.0 mph W8.0 kmh W -- 30.81 in1043.3 mb 0.00 in0.0 mm 0.00 in0.0 mm 0.00 in0.0 mm
10:40 PM -1.7°F-18.7°C -8.5°F-22.5°C 72% 5.0 mph W8.0 kmh W -- 30.81 in1043.3 mb 0.00 in0.0 mm 0.00 in0.0 mm 0.00 in0.0 mm
10:45 PM -1.8°F-18.8°C -8.6°F-22.6°C 72% 5.0 mph W8.0 kmh W -- 30.81 in1043.3 mb 0.00 in0.0 mm 0.00 in0.0 mm 0.00 in0.0 mm
10:50 PM -1.9°F-18.8°C -8.7°F-22.6°C 72% 8.0 mph W12.9 kmh W -- 30.81 in1043.3 mb 0.00 in0.0 mm 0.00 in0.0 mm 0.00 in0.0 mm
10:55 PM -1.9°F-18.8°C -8.7°F-22.6°C 72% 6.0 mph W9.7 kmh W -- 30.81 in1043.3 mb 0.00 in0.0 mm 0.00 in0.0 mm 0.00 in0.0 mm
11:00 PM -2.0°F-18.9°C -8.8°F-22.7°C 72% 5.0 mph WNW8.0 kmh WNW 9.0 mph14.5 kmh 30.81 in1043.3 mb 0.00 in0.0 mm 0.00 in0.0 mm 0.00 in0.0 mm
11:05 PM -2.0°F-18.9°C -8.8°F-22.7°C 72% 3.0 mph WSW4.8 kmh WSW 9.0 mph14.5 kmh 30.81 in1043.3 mb 0.00 in0.0 mm 0.00 in0.0 mm 0.00 in0.0 mm
11:10 PM -2.2°F-19.0°C -9.0°F-22.8°C 72% 3.0 mph W4.8 kmh W -- 30.81 in1043.3 mb 0.00 in0.0 mm 0.00 in0.0 mm 0.00 in0.0 mm
11:15 PM -2.3°F-19.1°C -8.8°F-22.7°C 73% 3.0 mph W4.8 kmh W -- 30.81 in1043.3 mb 0.00 in0.0 mm 0.00 in0.0 mm 0.00 in0.0 mm
11:20 PM -2.5°F-19.2°C -9.0°F-22.8°C 73% 6.0 mph W9.7 kmh W -- 30.81 in1043.3 mb 0.00 in0.0 mm 0.00 in0.0 mm 0.00 in0.0 mm
11:25 PM -2.7°F-19.3°C -9.2°F-22.9°C 73% 3.0 mph W4.8 kmh W -- 30.81 in1043.3 mb 0.00 in0.0 mm 0.00 in0.0 mm 0.00 in0.0 mm
11:30 PM -2.8°F-19.3°C -9.3°F-22.9°C 73% 5.0 mph WSW8.0 kmh WSW -- 30.81 in1043.3 mb 0.00 in0.0 mm 0.00 in0.0 mm 0.00 in0.0 mm
11:35 PM -3.0°F-19.4°C -9.5°F-23.1°C 73% 3.0 mph WSW4.8 kmh WSW -- 30.81 in1043.3 mb 0.00 in0.0 mm 0.00 in0.0 mm 0.00 in0.0 mm
11:40 PM -3.0°F-19.4°C -9.2°F-22.9°C 74% 3.0 mph WSW4.8 kmh WSW -- 30.81 in1043.3 mb 0.00 in0.0 mm 0.00 in0.0 mm 0.00 in0.0 mm
11:45 PM -3.2°F-19.6°C -9.4°F-23.0°C 74% 4.0 mph WSW6.4 kmh WSW -- 30.81 in1043.3 mb 0.00 in0.0 mm 0.00 in0.0 mm 0.00 in0.0 mm
11:50 PM -3.3°F-19.6°C -9.5°F-23.1°C 74% 2.0 mph WSW3.2 kmh WSW 6.0 mph9.7 kmh 30.81 in1043.3 mb 0.00 in0.0 mm 0.00 in0.0 mm 0.00 in0.0 mm
11:55 PM -3.4°F-19.7°C -9.3°F-22.9°C 75% 3.0 mph WSW4.8 kmh WSW 6.0 mph9.7 kmh 30.81 in1043.3 mb 0.00 in0.0 mm 0.00 in0.0 mm 0.00 in0.0 mm